In Rescue
 
Open Full Screen Window  High Contrast Mode
Wind Gusting 00 knots
04
April 03, 2020 12:51 AM EDT
Weather Information
Wind Direction
  270 °
Wind Speed
  04 kt (5 mph)
Wind Gust
  00 kt (0 mph)
Altimeter
30.09 in
Visibility
10 SM
Temperature
06° C
43° F
Dewpoint
00° C
32° F
Humidity
66%
Sky Condition
Clear
VFR

METAR KTEW 030451Z AUTO 27004KT 10SM CLR 06/00 A3009 RMK AO2 T00610002

FAA Disclaimer: The data displayed is for advisory purposes only and is not to be used for flight planning or operations.